sensor_id;sensor_type;location;lat;lon;timestamp;P1;durP1;ratioP1;P2;durP2;ratioP2
63005;SDS011;53704;52.532;6.426;2022-10-23T00:02:18;12.82;;;10.90;;
63005;SDS011;53704;52.532;6.426;2022-10-23T00:04:44;18.25;;;11.95;;
63005;SDS011;53704;52.532;6.426;2022-10-23T00:07:09;19.17;;;11.45;;
63005;SDS011;53704;52.532;6.426;2022-10-23T00:09:35;24.83;;;13.27;;
63005;SDS011;53704;52.532;6.426;2022-10-23T00:12:01;25.48;;;12.07;;
63005;SDS011;53704;52.532;6.426;2022-10-23T00:14:26;26.42;;;12.52;;
63005;SDS011;53704;52.532;6.426;2022-10-23T00:16:51;30.80;;;13.63;;
63005;SDS011;53704;52.532;6.426;2022-10-23T00:19:17;23.33;;;11.43;;
63005;SDS011;53704;52.532;6.426;2022-10-23T00:21:42;18.48;;;11.82;;
63005;SDS011;53704;52.532;6.426;2022-10-23T00:24:08;14.27;;;10.95;;
63005;SDS011;53704;52.532;6.426;2022-10-23T00:26:34;21.70;;;13.77;;
63005;SDS011;53704;52.532;6.426;2022-10-23T00:28:59;16.48;;;12.55;;
63005;SDS011;53704;52.532;6.426;2022-10-23T00:31:24;29.15;;;14.00;;
63005;SDS011;53704;52.532;6.426;2022-10-23T00:33:50;25.80;;;12.30;;
63005;SDS011;53704;52.532;6.426;2022-10-23T00:36:17;28.15;;;12.82;;
63005;SDS011;53704;52.532;6.426;2022-10-23T00:38:44;15.48;;;12.13;;
63005;SDS011;53704;52.532;6.426;2022-10-23T00:41:20;27.27;;;13.15;;
63005;SDS011;53704;52.532;6.426;2022-10-23T00:44:03;21.10;;;13.25;;
63005;SDS011;53704;52.532;6.426;2022-10-23T00:46:31;35.47;;;14.75;;
63005;SDS011;53704;52.532;6.426;2022-10-23T00:48:57;24.88;;;14.80;;
63005;SDS011;53704;52.532;6.426;2022-10-23T00:51:25;29.30;;;14.30;;
63005;SDS011;53704;52.532;6.426;2022-10-23T00:53:56;26.05;;;14.65;;
63005;SDS011;53704;52.532;6.426;2022-10-23T00:56:24;30.15;;;13.57;;
63005;SDS011;53704;52.532;6.426;2022-10-23T00:58:50;22.52;;;12.60;;
63005;SDS011;53704;52.532;6.426;2022-10-23T01:01:16;26.67;;;13.25;;
63005;SDS011;53704;52.532;6.426;2022-10-23T01:03:43;17.63;;;12.10;;
63005;SDS011;53704;52.532;6.426;2022-10-23T01:06:22;25.75;;;12.20;;
63005;SDS011;53704;52.532;6.426;2022-10-23T01:12:00;23.33;;;12.30;;
63005;SDS011;53704;52.532;6.426;2022-10-23T01:14:40;25.15;;;11.95;;
63005;SDS011;53704;52.532;6.426;2022-10-23T01:28:12;31.17;;;12.55;;
63005;SDS011;53704;52.532;6.426;2022-10-23T01:30:45;21.45;;;11.55;;
63005;SDS011;53704;52.532;6.426;2022-10-23T01:33:18;33.15;;;12.88;;
63005;SDS011;53704;52.532;6.426;2022-10-23T01:35:51;25.35;;;12.55;;
63005;SDS011;53704;52.532;6.426;2022-10-23T01:41:27;33.30;;;14.45;;
63005;SDS011;53704;52.532;6.426;2022-10-23T01:46:25;26.45;;;13.57;;
63005;SDS011;53704;52.532;6.426;2022-10-23T01:48:52;24.95;;;15.32;;
63005;SDS011;53704;52.532;6.426;2022-10-23T01:51:19;22.52;;;12.90;;
63005;SDS011;53704;52.532;6.426;2022-10-23T01:53:49;23.73;;;13.13;;
63005;SDS011;53704;52.532;6.426;2022-10-23T01:56:21;32.40;;;14.30;;
63005;SDS011;53704;52.532;6.426;2022-10-23T01:58:51;25.65;;;13.25;;
63005;SDS011;53704;52.532;6.426;2022-10-23T02:01:20;27.02;;;15.18;;
63005;SDS011;53704;52.532;6.426;2022-10-23T02:03:49;25.95;;;14.40;;
63005;SDS011;53704;52.532;6.426;2022-10-23T02:06:16;31.20;;;15.63;;
63005;SDS011;53704;52.532;6.426;2022-10-23T02:08:41;31.85;;;15.05;;
63005;SDS011;53704;52.532;6.426;2022-10-23T02:11:08;23.35;;;13.15;;
63005;SDS011;53704;52.532;6.426;2022-10-23T02:16:15;27.63;;;13.43;;
63005;SDS011;53704;52.532;6.426;2022-10-23T02:19:27;43.65;;;18.05;;
63005;SDS011;53704;52.532;6.426;2022-10-23T02:24:36;29.58;;;13.43;;
63005;SDS011;53704;52.532;6.426;2022-10-23T02:27:24;18.13;;;12.63;;
63005;SDS011;53704;52.532;6.426;2022-10-23T02:30:09;21.50;;;12.02;;
63005;SDS011;53704;52.532;6.426;2022-10-23T02:32:39;22.15;;;11.88;;
63005;SDS011;53704;52.532;6.426;2022-10-23T02:35:10;24.38;;;12.80;;
63005;SDS011;53704;52.532;6.426;2022-10-23T02:37:35;18.75;;;11.52;;
63005;SDS011;53704;52.532;6.426;2022-10-23T02:40:01;25.17;;;12.25;;
63005;SDS011;53704;52.532;6.426;2022-10-23T02:42:32;19.70;;;12.43;;
63005;SDS011;53704;52.532;6.426;2022-10-23T02:45:11;29.05;;;13.20;;
63005;SDS011;53704;52.532;6.426;2022-10-23T03:00:49;21.35;;;11.93;;
63005;SDS011;53704;52.532;6.426;2022-10-23T03:03:21;23.23;;;13.02;;
63005;SDS011;53704;52.532;6.426;2022-10-23T03:05:51;20.58;;;12.32;;
63005;SDS011;53704;52.532;6.426;2022-10-23T03:08:17;23.85;;;12.07;;
63005;SDS011;53704;52.532;6.426;2022-10-23T03:10:42;17.95;;;12.10;;
63005;SDS011;53704;52.532;6.426;2022-10-23T03:13:08;23.77;;;11.23;;
63005;SDS011;53704;52.532;6.426;2022-10-23T03:15:36;15.07;;;10.68;;
63005;SDS011;53704;52.532;6.426;2022-10-23T03:18:02;21.00;;;11.43;;
63005;SDS011;53704;52.532;6.426;2022-10-23T03:20:27;17.50;;;11.90;;
63005;SDS011;53704;52.532;6.426;2022-10-23T03:22:53;23.40;;;11.65;;
63005;SDS011;53704;52.532;6.426;2022-10-23T03:25:18;24.73;;;12.40;;
63005;SDS011;53704;52.532;6.426;2022-10-23T03:27:43;18.40;;;11.02;;
63005;SDS011;53704;52.532;6.426;2022-10-23T03:30:09;20.45;;;12.10;;
63005;SDS011;53704;52.532;6.426;2022-10-23T03:32:34;18.00;;;12.75;;
63005;SDS011;53704;52.532;6.426;2022-10-23T03:35:00;20.42;;;12.43;;
63005;SDS011;53704;52.532;6.426;2022-10-23T03:37:25;26.98;;;12.77;;
63005;SDS011;53704;52.532;6.426;2022-10-23T03:39:51;35.22;;;13.27;;
63005;SDS011;53704;52.532;6.426;2022-10-23T03:42:16;18.50;;;12.50;;
63005;SDS011;53704;52.532;6.426;2022-10-23T03:44:42;29.42;;;13.75;;
63005;SDS011;53704;52.532;6.426;2022-10-23T03:47:08;26.63;;;12.70;;
63005;SDS011;53704;52.532;6.426;2022-10-23T03:49:35;37.80;;;13.73;;
63005;SDS011;53704;52.532;6.426;2022-10-23T03:52:01;27.80;;;13.13;;
63005;SDS011;53704;52.532;6.426;2022-10-23T03:54:26;22.17;;;12.80;;
63005;SDS011;53704;52.532;6.426;2022-10-23T03:56:53;20.92;;;11.77;;
63005;SDS011;53704;52.532;6.426;2022-10-23T03:59:19;29.48;;;12.57;;
63005;SDS011;53704;52.532;6.426;2022-10-23T04:01:44;17.40;;;10.60;;
63005;SDS011;53704;52.532;6.426;2022-10-23T04:04:10;20.70;;;12.40;;
63005;SDS011;53704;52.532;6.426;2022-10-23T04:06:36;17.65;;;11.68;;
63005;SDS011;53704;52.532;6.426;2022-10-23T04:09:02;18.98;;;11.07;;
63005;SDS011;53704;52.532;6.426;2022-10-23T04:11:28;21.02;;;11.27;;
63005;SDS011;53704;52.532;6.426;2022-10-23T04:13:53;26.20;;;12.38;;
63005;SDS011;53704;52.532;6.426;2022-10-23T04:16:19;20.63;;;12.98;;
63005;SDS011;53704;52.532;6.426;2022-10-23T04:18:44;20.00;;;11.85;;
63005;SDS011;53704;52.532;6.426;2022-10-23T04:21:10;14.15;;;10.05;;
63005;SDS011;53704;52.532;6.426;2022-10-23T04:23:35;17.42;;;10.52;;
63005;SDS011;53704;52.532;6.426;2022-10-23T04:26:01;24.23;;;12.13;;
63005;SDS011;53704;52.532;6.426;2022-10-23T04:28:26;21.67;;;11.75;;
63005;SDS011;53704;52.532;6.426;2022-10-23T04:30:52;30.90;;;12.02;;
63005;SDS011;53704;52.532;6.426;2022-10-23T04:33:17;18.75;;;11.23;;
63005;SDS011;53704;52.532;6.426;2022-10-23T04:35:43;33.20;;;13.73;;
63005;SDS011;53704;52.532;6.426;2022-10-23T04:38:08;16.17;;;11.63;;
63005;SDS011;53704;52.532;6.426;2022-10-23T04:40:33;38.55;;;14.63;;
63005;SDS011;53704;52.532;6.426;2022-10-23T04:42:59;29.48;;;14.63;;
63005;SDS011;53704;52.532;6.426;2022-10-23T04:45:24;31.77;;;14.07;;
63005;SDS011;53704;52.532;6.426;2022-10-23T04:47:50;27.90;;;14.02;;
63005;SDS011;53704;52.532;6.426;2022-10-23T04:50:17;33.75;;;14.98;;
63005;SDS011;53704;52.532;6.426;2022-10-23T04:52:43;28.77;;;14.02;;
63005;SDS011;53704;52.532;6.426;2022-10-23T04:55:09;35.30;;;16.58;;
63005;SDS011;53704;52.532;6.426;2022-10-23T04:57:34;47.15;;;15.38;;
63005;SDS011;53704;52.532;6.426;2022-10-23T04:59:59;26.85;;;14.77;;
63005;SDS011;53704;52.532;6.426;2022-10-23T05:02:25;35.60;;;14.07;;
63005;SDS011;53704;52.532;6.426;2022-10-23T05:04:51;34.63;;;13.75;;
63005;SDS011;53704;52.532;6.426;2022-10-23T05:07:17;28.23;;;14.93;;
63005;SDS011;53704;52.532;6.426;2022-10-23T05:09:42;24.73;;;14.75;;
63005;SDS011;53704;52.532;6.426;2022-10-23T05:12:08;29.95;;;13.48;;
63005;SDS011;53704;52.532;6.426;2022-10-23T05:14:33;24.63;;;13.07;;
63005;SDS011;53704;52.532;6.426;2022-10-23T05:17:03;34.08;;;14.60;;
63005;SDS011;53704;52.532;6.426;2022-10-23T05:19:43;23.40;;;12.98;;
63005;SDS011;53704;52.532;6.426;2022-10-23T05:22:13;29.80;;;13.48;;
63005;SDS011;53704;52.532;6.426;2022-10-23T05:24:39;32.33;;;15.25;;
63005;SDS011;53704;52.532;6.426;2022-10-23T05:27:04;37.97;;;14.75;;
63005;SDS011;53704;52.532;6.426;2022-10-23T05:29:30;42.53;;;17.55;;
63005;SDS011;53704;52.532;6.426;2022-10-23T05:31:57;46.83;;;16.88;;
63005;SDS011;53704;52.532;6.426;2022-10-23T05:34:26;36.55;;;17.35;;
63005;SDS011;53704;52.532;6.426;2022-10-23T05:36:54;37.63;;;15.70;;
63005;SDS011;53704;52.532;6.426;2022-10-23T05:39:19;38.72;;;17.23;;
63005;SDS011;53704;52.532;6.426;2022-10-23T05:41:45;30.35;;;16.15;;
63005;SDS011;53704;52.532;6.426;2022-10-23T05:44:11;31.38;;;17.00;;
63005;SDS011;53704;52.532;6.426;2022-10-23T05:46:40;31.67;;;16.50;;
63005;SDS011;53704;52.532;6.426;2022-10-23T05:49:06;35.97;;;16.67;;
63005;SDS011;53704;52.532;6.426;2022-10-23T05:51:34;33.63;;;15.88;;
63005;SDS011;53704;52.532;6.426;2022-10-23T05:54:00;38.40;;;17.85;;
63005;SDS011;53704;52.532;6.426;2022-10-23T05:56:25;38.67;;;18.48;;
63005;SDS011;53704;52.532;6.426;2022-10-23T05:58:51;37.85;;;19.30;;
63005;SDS011;53704;52.532;6.426;2022-10-23T06:01:16;39.05;;;16.90;;
63005;SDS011;53704;52.532;6.426;2022-10-23T06:03:42;29.92;;;17.33;;
63005;SDS011;53704;52.532;6.426;2022-10-23T06:06:08;36.25;;;17.30;;
63005;SDS011;53704;52.532;6.426;2022-10-23T06:08:33;35.60;;;17.00;;
63005;SDS011;53704;52.532;6.426;2022-10-23T06:11:09;30.08;;;15.85;;
63005;SDS011;53704;52.532;6.426;2022-10-23T06:13:36;30.00;;;15.75;;
63005;SDS011;53704;52.532;6.426;2022-10-23T06:16:09;35.45;;;17.35;;
63005;SDS011;53704;52.532;6.426;2022-10-23T06:18:35;41.72;;;17.25;;
63005;SDS011;53704;52.532;6.426;2022-10-23T06:21:01;38.00;;;17.73;;
63005;SDS011;53704;52.532;6.426;2022-10-23T06:23:26;45.50;;;17.63;;
63005;SDS011;53704;52.532;6.426;2022-10-23T06:25:52;33.20;;;17.25;;
63005;SDS011;53704;52.532;6.426;2022-10-23T06:28:18;41.97;;;18.50;;
63005;SDS011;53704;52.532;6.426;2022-10-23T06:30:44;33.15;;;17.42;;
63005;SDS011;53704;52.532;6.426;2022-10-23T06:33:09;33.97;;;16.73;;
63005;SDS011;53704;52.532;6.426;2022-10-23T06:35:34;41.70;;;18.17;;
63005;SDS011;53704;52.532;6.426;2022-10-23T06:38:00;28.02;;;15.43;;
63005;SDS011;53704;52.532;6.426;2022-10-23T06:40:26;40.75;;;16.95;;
63005;SDS011;53704;52.532;6.426;2022-10-23T06:42:51;41.63;;;17.10;;
63005;SDS011;53704;52.532;6.426;2022-10-23T06:45:16;23.75;;;14.77;;
63005;SDS011;53704;52.532;6.426;2022-10-23T06:47:42;36.03;;;15.70;;
63005;SDS011;53704;52.532;6.426;2022-10-23T06:50:07;29.27;;;15.23;;
63005;SDS011;53704;52.532;6.426;2022-10-23T06:52:33;39.97;;;17.25;;
63005;SDS011;53704;52.532;6.426;2022-10-23T06:54:58;40.53;;;18.20;;
63005;SDS011;53704;52.532;6.426;2022-10-23T06:57:23;37.70;;;17.65;;
63005;SDS011;53704;52.532;6.426;2022-10-23T06:59:49;33.97;;;17.08;;
63005;SDS011;53704;52.532;6.426;2022-10-23T07:02:14;31.50;;;16.00;;
63005;SDS011;53704;52.532;6.426;2022-10-23T07:04:39;32.45;;;16.35;;
63005;SDS011;53704;52.532;6.426;2022-10-23T07:07:05;43.85;;;16.92;;
63005;SDS011;53704;52.532;6.426;2022-10-23T07:09:31;31.20;;;16.33;;
63005;SDS011;53704;52.532;6.426;2022-10-23T07:11:56;39.83;;;17.15;;
63005;SDS011;53704;52.532;6.426;2022-10-23T07:14:22;34.33;;;15.98;;
63005;SDS011;53704;52.532;6.426;2022-10-23T07:16:47;26.08;;;14.90;;
63005;SDS011;53704;52.532;6.426;2022-10-23T07:19:12;32.00;;;15.88;;
63005;SDS011;53704;52.532;6.426;2022-10-23T07:21:38;42.72;;;17.30;;
63005;SDS011;53704;52.532;6.426;2022-10-23T07:24:03;27.88;;;15.85;;
63005;SDS011;53704;52.532;6.426;2022-10-23T07:26:29;31.13;;;16.63;;
63005;SDS011;53704;52.532;6.426;2022-10-23T07:28:54;36.45;;;15.32;;
63005;SDS011;53704;52.532;6.426;2022-10-23T07:31:20;35.83;;;16.77;;
63005;SDS011;53704;52.532;6.426;2022-10-23T07:33:47;34.95;;;16.65;;
63005;SDS011;53704;52.532;6.426;2022-10-23T07:36:12;39.65;;;17.13;;
63005;SDS011;53704;52.532;6.426;2022-10-23T07:38:37;31.40;;;16.88;;
63005;SDS011;53704;52.532;6.426;2022-10-23T07:41:03;39.22;;;16.00;;
63005;SDS011;53704;52.532;6.426;2022-10-23T07:43:29;29.02;;;16.35;;
63005;SDS011;53704;52.532;6.426;2022-10-23T07:45:55;32.70;;;15.93;;
63005;SDS011;53704;52.532;6.426;2022-10-23T07:48:20;40.30;;;16.65;;
63005;SDS011;53704;52.532;6.426;2022-10-23T07:50:47;32.58;;;14.50;;
63005;SDS011;53704;52.532;6.426;2022-10-23T07:53:15;30.67;;;15.32;;
63005;SDS011;53704;52.532;6.426;2022-10-23T07:55:44;25.02;;;15.32;;
63005;SDS011;53704;52.532;6.426;2022-10-23T07:58:19;32.85;;;15.30;;
63005;SDS011;53704;52.532;6.426;2022-10-23T08:00:45;42.03;;;14.43;;
63005;SDS011;53704;52.532;6.426;2022-10-23T08:03:16;30.58;;;16.08;;
63005;SDS011;53704;52.532;6.426;2022-10-23T08:05:42;29.15;;;15.20;;
63005;SDS011;53704;52.532;6.426;2022-10-23T08:08:07;30.58;;;15.18;;
63005;SDS011;53704;52.532;6.426;2022-10-23T08:10:33;34.05;;;13.70;;
63005;SDS011;53704;52.532;6.426;2022-10-23T08:12:58;29.13;;;14.68;;
63005;SDS011;53704;52.532;6.426;2022-10-23T08:15:24;31.42;;;13.57;;
63005;SDS011;53704;52.532;6.426;2022-10-23T08:17:49;35.58;;;15.30;;
63005;SDS011;53704;52.532;6.426;2022-10-23T08:20:15;29.55;;;14.52;;
63005;SDS011;53704;52.532;6.426;2022-10-23T08:22:40;41.83;;;14.77;;
63005;SDS011;53704;52.532;6.426;2022-10-23T08:25:06;27.80;;;14.32;;
63005;SDS011;53704;52.532;6.426;2022-10-23T08:27:31;28.60;;;12.93;;
63005;SDS011;53704;52.532;6.426;2022-10-23T08:29:57;22.25;;;12.95;;
63005;SDS011;53704;52.532;6.426;2022-10-23T08:32:22;25.80;;;13.13;;
63005;SDS011;53704;52.532;6.426;2022-10-23T08:34:47;28.10;;;14.13;;
63005;SDS011;53704;52.532;6.426;2022-10-23T08:37:13;25.00;;;12.57;;
63005;SDS011;53704;52.532;6.426;2022-10-23T08:39:38;26.08;;;13.82;;
63005;SDS011;53704;52.532;6.426;2022-10-23T08:42:04;23.98;;;12.57;;
63005;SDS011;53704;52.532;6.426;2022-10-23T08:44:39;26.30;;;14.02;;
63005;SDS011;53704;52.532;6.426;2022-10-23T08:47:17;21.77;;;11.95;;
63005;SDS011;53704;52.532;6.426;2022-10-23T08:50:00;22.13;;;12.18;;
63005;SDS011;53704;52.532;6.426;2022-10-23T08:52:40;20.17;;;12.18;;
63005;SDS011;53704;52.532;6.426;2022-10-23T08:55:32;24.42;;;12.15;;
63005;SDS011;53704;52.532;6.426;2022-10-23T09:00:53;16.88;;;11.27;;
63005;SDS011;53704;52.532;6.426;2022-10-23T09:03:18;25.25;;;10.38;;
63005;SDS011;53704;52.532;6.426;2022-10-23T09:08:39;19.70;;;10.68;;
63005;SDS011;53704;52.532;6.426;2022-10-23T09:17:09;20.30;;;9.75;;
63005;SDS011;53704;52.532;6.426;2022-10-23T09:19:43;16.73;;;11.52;;
63005;SDS011;53704;52.532;6.426;2022-10-23T09:22:09;11.40;;;9.80;;
63005;SDS011;53704;52.532;6.426;2022-10-23T09:24:36;18.50;;;10.63;;
63005;SDS011;53704;52.532;6.426;2022-10-23T09:27:08;17.38;;;9.90;;
63005;SDS011;53704;52.532;6.426;2022-10-23T09:29:45;16.42;;;10.30;;
63005;SDS011;53704;52.532;6.426;2022-10-23T09:32:15;15.18;;;9.75;;
63005;SDS011;53704;52.532;6.426;2022-10-23T09:34:49;17.80;;;10.00;;
63005;SDS011;53704;52.532;6.426;2022-10-23T09:37:20;19.45;;;9.63;;
63005;SDS011;53704;52.532;6.426;2022-10-23T09:39:48;17.50;;;9.10;;
63005;SDS011;53704;52.532;6.426;2022-10-23T09:42:25;13.18;;;8.75;;
63005;SDS011;53704;52.532;6.426;2022-10-23T09:44:51;12.48;;;8.65;;
63005;SDS011;53704;52.532;6.426;2022-10-23T09:47:19;17.23;;;8.60;;
63005;SDS011;53704;52.532;6.426;2022-10-23T09:49:50;16.85;;;8.15;;
63005;SDS011;53704;52.532;6.426;2022-10-23T09:52:24;11.37;;;8.27;;
63005;SDS011;53704;52.532;6.426;2022-10-23T09:55:00;14.82;;;7.82;;
63005;SDS011;53704;52.532;6.426;2022-10-23T10:00:20;11.13;;;7.15;;
63005;SDS011;53704;52.532;6.426;2022-10-23T10:03:00;35.17;;;9.65;;
63005;SDS011;53704;52.532;6.426;2022-10-23T10:05:36;11.43;;;7.60;;
63005;SDS011;53704;52.532;6.426;2022-10-23T10:10:46;13.85;;;6.72;;
63005;SDS011;53704;52.532;6.426;2022-10-23T10:15:50;13.32;;;7.10;;
63005;SDS011;53704;52.532;6.426;2022-10-23T10:18:42;14.45;;;6.45;;
63005;SDS011;53704;52.532;6.426;2022-10-23T10:21:31;16.75;;;6.53;;
63005;SDS011;53704;52.532;6.426;2022-10-23T10:24:29;14.35;;;6.75;;
63005;SDS011;53704;52.532;6.426;2022-10-23T10:27:00;14.18;;;6.03;;
63005;SDS011;53704;52.532;6.426;2022-10-23T10:30:02;10.25;;;6.20;;
63005;SDS011;53704;52.532;6.426;2022-10-23T10:32:53;6.40;;;5.18;;
63005;SDS011;53704;52.532;6.426;2022-10-23T10:49:16;7.28;;;5.38;;
63005;SDS011;53704;52.532;6.426;2022-10-23T10:57:29;18.45;;;5.53;;
63005;SDS011;53704;52.532;6.426;2022-10-23T10:59:59;12.18;;;5.80;;
63005;SDS011;53704;52.532;6.426;2022-10-23T11:02:30;14.13;;;5.43;;
63005;SDS011;53704;52.532;6.426;2022-10-23T11:07:41;11.77;;;5.78;;
63005;SDS011;53704;52.532;6.426;2022-10-23T11:10:17;7.15;;;6.10;;
63005;SDS011;53704;52.532;6.426;2022-10-23T11:12:43;9.55;;;5.38;;
63005;SDS011;53704;52.532;6.426;2022-10-23T11:15:11;16.70;;;5.38;;
63005;SDS011;53704;52.532;6.426;2022-10-23T11:17:39;10.73;;;5.55;;
63005;SDS011;53704;52.532;6.426;2022-10-23T11:37:05;7.10;;;4.82;;
63005;SDS011;53704;52.532;6.426;2022-10-23T11:39:33;5.78;;;4.38;;
63005;SDS011;53704;52.532;6.426;2022-10-23T11:44:47;15.85;;;4.72;;
63005;SDS011;53704;52.532;6.426;2022-10-23T11:52:31;14.88;;;5.20;;
63005;SDS011;53704;52.532;6.426;2022-10-23T11:55:00;12.90;;;4.90;;
63005;SDS011;53704;52.532;6.426;2022-10-23T11:57:26;23.00;;;4.95;;
63005;SDS011;53704;52.532;6.426;2022-10-23T11:59:52;13.50;;;4.90;;
63005;SDS011;53704;52.532;6.426;2022-10-23T12:02:30;20.88;;;5.00;;
63005;SDS011;53704;52.532;6.426;2022-10-23T12:05:44;17.60;;;4.95;;
63005;SDS011;53704;52.532;6.426;2022-10-23T12:08:04;13.00;;;4.32;;
63005;SDS011;53704;52.532;6.426;2022-10-23T12:10:44;8.88;;;4.63;;
63005;SDS011;53704;52.532;6.426;2022-10-23T12:16:02;12.10;;;4.13;;
63005;SDS011;53704;52.532;6.426;2022-10-23T12:21:17;6.43;;;4.03;;
63005;SDS011;53704;52.532;6.426;2022-10-23T12:31:52;9.25;;;4.07;;
63005;SDS011;53704;52.532;6.426;2022-10-23T12:37:10;17.48;;;3.67;;
63005;SDS011;53704;52.532;6.426;2022-10-23T12:39:57;6.07;;;3.53;;
63005;SDS011;53704;52.532;6.426;2022-10-23T12:42:26;8.13;;;5.07;;
63005;SDS011;53704;52.532;6.426;2022-10-23T12:45:05;10.80;;;3.67;;
63005;SDS011;53704;52.532;6.426;2022-10-23T12:47:42;11.38;;;3.80;;
63005;SDS011;53704;52.532;6.426;2022-10-23T12:50:24;5.90;;;3.30;;
63005;SDS011;53704;52.532;6.426;2022-10-23T12:55:25;6.20;;;3.35;;
63005;SDS011;53704;52.532;6.426;2022-10-23T12:57:52;5.57;;;3.17;;
63005;SDS011;53704;52.532;6.426;2022-10-23T13:00:19;3.92;;;3.40;;
63005;SDS011;53704;52.532;6.426;2022-10-23T13:02:59;8.80;;;3.53;;
63005;SDS011;53704;52.532;6.426;2022-10-23T13:05:26;9.27;;;3.50;;
63005;SDS011;53704;52.532;6.426;2022-10-23T13:07:53;6.78;;;3.60;;
63005;SDS011;53704;52.532;6.426;2022-10-23T13:10:21;8.75;;;3.53;;
63005;SDS011;53704;52.532;6.426;2022-10-23T13:12:57;4.82;;;2.88;;
63005;SDS011;53704;52.532;6.426;2022-10-23T13:15:24;9.30;;;3.55;;
63005;SDS011;53704;52.532;6.426;2022-10-23T13:20:32;15.38;;;3.78;;
63005;SDS011;53704;52.532;6.426;2022-10-23T13:25:35;15.82;;;3.88;;
63005;SDS011;53704;52.532;6.426;2022-10-23T13:30:55;10.40;;;3.70;;
63005;SDS011;53704;52.532;6.426;2022-10-23T13:33:24;9.13;;;3.20;;
63005;SDS011;53704;52.532;6.426;2022-10-23T13:35:58;6.25;;;2.70;;
63005;SDS011;53704;52.532;6.426;2022-10-23T13:40:59;5.65;;;3.53;;
63005;SDS011;53704;52.532;6.426;2022-10-23T13:43:26;4.95;;;2.70;;
63005;SDS011;53704;52.532;6.426;2022-10-23T13:45:54;9.85;;;3.35;;
63005;SDS011;53704;52.532;6.426;2022-10-23T13:48:21;4.10;;;2.75;;
63005;SDS011;53704;52.532;6.426;2022-10-23T13:50:46;6.30;;;3.50;;
63005;SDS011;53704;52.532;6.426;2022-10-23T13:53:12;11.88;;;2.88;;
63005;SDS011;53704;52.532;6.426;2022-10-23T13:55:38;10.05;;;3.13;;
63005;SDS011;53704;52.532;6.426;2022-10-23T13:58:07;30.20;;;3.83;;
63005;SDS011;53704;52.532;6.426;2022-10-23T14:00:33;5.70;;;3.25;;
63005;SDS011;53704;52.532;6.426;2022-10-23T14:02:58;5.07;;;3.20;;
63005;SDS011;53704;52.532;6.426;2022-10-23T14:05:24;4.60;;;2.90;;
63005;SDS011;53704;52.532;6.426;2022-10-23T14:07:49;6.80;;;3.03;;
63005;SDS011;53704;52.532;6.426;2022-10-23T14:10:14;15.73;;;3.40;;
63005;SDS011;53704;52.532;6.426;2022-10-23T14:12:40;10.82;;;3.30;;
63005;SDS011;53704;52.532;6.426;2022-10-23T14:15:07;7.32;;;3.85;;
63005;SDS011;53704;52.532;6.426;2022-10-23T14:17:33;10.05;;;3.70;;
63005;SDS011;53704;52.532;6.426;2022-10-23T14:19:59;12.73;;;4.03;;
63005;SDS011;53704;52.532;6.426;2022-10-23T14:22:25;6.13;;;3.10;;
63005;SDS011;53704;52.532;6.426;2022-10-23T14:24:51;6.70;;;3.42;;
63005;SDS011;53704;52.532;6.426;2022-10-23T14:27:16;4.75;;;2.90;;
63005;SDS011;53704;52.532;6.426;2022-10-23T14:29:42;21.30;;;3.67;;
63005;SDS011;53704;52.532;6.426;2022-10-23T14:32:07;10.75;;;3.45;;
63005;SDS011;53704;52.532;6.426;2022-10-23T14:34:32;4.57;;;2.70;;
63005;SDS011;53704;52.532;6.426;2022-10-23T14:36:58;8.88;;;2.97;;
63005;SDS011;53704;52.532;6.426;2022-10-23T14:39:23;6.25;;;2.88;;
63005;SDS011;53704;52.532;6.426;2022-10-23T14:41:49;8.20;;;3.00;;
63005;SDS011;53704;52.532;6.426;2022-10-23T14:44:14;15.88;;;3.67;;
63005;SDS011;53704;52.532;6.426;2022-10-23T14:46:39;7.00;;;3.10;;
63005;SDS011;53704;52.532;6.426;2022-10-23T14:49:08;9.63;;;3.05;;
63005;SDS011;53704;52.532;6.426;2022-10-23T14:51:33;5.40;;;3.15;;
63005;SDS011;53704;52.532;6.426;2022-10-23T14:54:00;4.97;;;3.20;;
63005;SDS011;53704;52.532;6.426;2022-10-23T14:56:27;7.97;;;2.70;;
63005;SDS011;53704;52.532;6.426;2022-10-23T14:58:54;10.60;;;3.03;;
63005;SDS011;53704;52.532;6.426;2022-10-23T15:01:26;3.80;;;2.85;;
63005;SDS011;53704;52.532;6.426;2022-10-23T15:03:52;7.20;;;2.90;;
63005;SDS011;53704;52.532;6.426;2022-10-23T15:06:19;6.25;;;2.53;;
63005;SDS011;53704;52.532;6.426;2022-10-23T15:08:47;4.30;;;3.00;;
63005;SDS011;53704;52.532;6.426;2022-10-23T15:11:13;19.52;;;3.05;;
63005;SDS011;53704;52.532;6.426;2022-10-23T15:13:39;6.78;;;3.05;;
63005;SDS011;53704;52.532;6.426;2022-10-23T15:16:05;13.98;;;3.22;;
63005;SDS011;53704;52.532;6.426;2022-10-23T15:18:33;4.80;;;3.13;;
63005;SDS011;53704;52.532;6.426;2022-10-23T15:21:00;15.40;;;3.08;;
63005;SDS011;53704;52.532;6.426;2022-10-23T15:23:26;5.93;;;2.78;;
63005;SDS011;53704;52.532;6.426;2022-10-23T15:25:55;14.80;;;3.85;;
63005;SDS011;53704;52.532;6.426;2022-10-23T15:28:25;13.93;;;3.35;;
63005;SDS011;53704;52.532;6.426;2022-10-23T15:30:51;9.27;;;2.33;;
63005;SDS011;53704;52.532;6.426;2022-10-23T15:33:16;8.13;;;3.08;;
63005;SDS011;53704;52.532;6.426;2022-10-23T15:35:42;7.03;;;3.80;;
63005;SDS011;53704;52.532;6.426;2022-10-23T15:38:07;10.65;;;3.08;;
63005;SDS011;53704;52.532;6.426;2022-10-23T15:40:33;5.25;;;3.10;;
63005;SDS011;53704;52.532;6.426;2022-10-23T15:42:58;13.02;;;3.50;;
63005;SDS011;53704;52.532;6.426;2022-10-23T15:45:23;13.38;;;3.97;;
63005;SDS011;53704;52.532;6.426;2022-10-23T15:47:49;5.82;;;3.15;;
63005;SDS011;53704;52.532;6.426;2022-10-23T15:50:15;6.28;;;3.00;;
63005;SDS011;53704;52.532;6.426;2022-10-23T15:52:40;7.03;;;3.67;;
63005;SDS011;53704;52.532;6.426;2022-10-23T15:55:06;10.15;;;3.28;;
63005;SDS011;53704;52.532;6.426;2022-10-23T15:57:35;7.65;;;2.97;;
63005;SDS011;53704;52.532;6.426;2022-10-23T16:00:02;7.20;;;3.47;;
63005;SDS011;53704;52.532;6.426;2022-10-23T16:02:28;4.95;;;3.50;;
63005;SDS011;53704;52.532;6.426;2022-10-23T16:04:54;7.88;;;4.90;;
63005;SDS011;53704;52.532;6.426;2022-10-23T16:07:19;12.07;;;5.15;;
63005;SDS011;53704;52.532;6.426;2022-10-23T16:09:44;10.60;;;5.00;;
63005;SDS011;53704;52.532;6.426;2022-10-23T16:12:10;13.45;;;4.80;;
63005;SDS011;53704;52.532;6.426;2022-10-23T16:14:35;9.48;;;3.72;;
63005;SDS011;53704;52.532;6.426;2022-10-23T16:17:01;12.82;;;3.17;;
63005;SDS011;53704;52.532;6.426;2022-10-23T16:19:26;7.00;;;3.55;;
63005;SDS011;53704;52.532;6.426;2022-10-23T16:21:51;5.97;;;2.92;;
63005;SDS011;53704;52.532;6.426;2022-10-23T16:24:17;14.25;;;3.00;;
63005;SDS011;53704;52.532;6.426;2022-10-23T16:26:42;8.07;;;3.90;;
63005;SDS011;53704;52.532;6.426;2022-10-23T16:29:14;9.73;;;3.15;;
63005;SDS011;53704;52.532;6.426;2022-10-23T16:31:39;8.68;;;3.25;;
63005;SDS011;53704;52.532;6.426;2022-10-23T16:34:04;14.32;;;3.72;;
63005;SDS011;53704;52.532;6.426;2022-10-23T16:36:30;6.97;;;2.95;;
63005;SDS011;53704;52.532;6.426;2022-10-23T16:38:56;4.22;;;3.55;;
63005;SDS011;53704;52.532;6.426;2022-10-23T16:41:22;5.18;;;3.15;;
63005;SDS011;53704;52.532;6.426;2022-10-23T16:43:47;5.53;;;3.10;;
63005;SDS011;53704;52.532;6.426;2022-10-23T16:46:14;11.15;;;3.40;;
63005;SDS011;53704;52.532;6.426;2022-10-23T16:48:42;7.10;;;3.58;;
63005;SDS011;53704;52.532;6.426;2022-10-23T16:51:12;9.90;;;2.95;;